sensor_id;sensor_type;location;lat;lon;timestamp;P1;durP1;ratioP1;P2;durP2;ratioP2
47912;SDS011;33676;51.006;17.180;2023-03-07T00:01:30;38.00;;;31.30;;
47912;SDS011;33676;51.006;17.180;2023-03-07T00:04:01;49.60;;;34.00;;
47912;SDS011;33676;51.006;17.180;2023-03-07T00:06:30;48.90;;;36.50;;
47912;SDS011;33676;51.006;17.180;2023-03-07T00:09:00;45.40;;;32.60;;
47912;SDS011;33676;51.006;17.180;2023-03-07T00:11:30;42.80;;;29.60;;
47912;SDS011;33676;51.006;17.180;2023-03-07T00:13:59;39.80;;;30.20;;
47912;SDS011;33676;51.006;17.180;2023-03-07T00:16:27;34.10;;;26.80;;
47912;SDS011;33676;51.006;17.180;2023-03-07T00:18:56;37.80;;;28.80;;
47912;SDS011;33676;51.006;17.180;2023-03-07T00:21:25;38.00;;;27.00;;
47912;SDS011;33676;51.006;17.180;2023-03-07T00:23:58;37.50;;;28.70;;
47912;SDS011;33676;51.006;17.180;2023-03-07T00:26:27;35.80;;;27.30;;
47912;SDS011;33676;51.006;17.180;2023-03-07T00:28:55;39.70;;;27.30;;
47912;SDS011;33676;51.006;17.180;2023-03-07T00:31:24;38.50;;;27.50;;
47912;SDS011;33676;51.006;17.180;2023-03-07T00:33:52;43.50;;;29.40;;
47912;SDS011;33676;51.006;17.180;2023-03-07T00:36:21;36.30;;;28.20;;
47912;SDS011;33676;51.006;17.180;2023-03-07T00:38:51;40.60;;;27.90;;
47912;SDS011;33676;51.006;17.180;2023-03-07T00:41:24;35.50;;;26.20;;
47912;SDS011;33676;51.006;17.180;2023-03-07T00:43:54;36.30;;;26.50;;
47912;SDS011;33676;51.006;17.180;2023-03-07T00:46:24;35.90;;;28.30;;
47912;SDS011;33676;51.006;17.180;2023-03-07T00:48:53;39.90;;;29.50;;
47912;SDS011;33676;51.006;17.180;2023-03-07T00:51:22;42.30;;;30.60;;
47912;SDS011;33676;51.006;17.180;2023-03-07T00:53:51;45.90;;;30.80;;
47912;SDS011;33676;51.006;17.180;2023-03-07T00:56:21;44.70;;;30.70;;
47912;SDS011;33676;51.006;17.180;2023-03-07T00:58:52;40.70;;;29.90;;
47912;SDS011;33676;51.006;17.180;2023-03-07T01:01:22;46.40;;;32.10;;
47912;SDS011;33676;51.006;17.180;2023-03-07T01:03:52;48.20;;;31.50;;
47912;SDS011;33676;51.006;17.180;2023-03-07T01:06:27;43.60;;;31.00;;
47912;SDS011;33676;51.006;17.180;2023-03-07T01:09:00;47.40;;;32.80;;
47912;SDS011;33676;51.006;17.180;2023-03-07T01:11:32;48.80;;;32.90;;
47912;SDS011;33676;51.006;17.180;2023-03-07T01:14:03;45.10;;;30.60;;
47912;SDS011;33676;51.006;17.180;2023-03-07T01:16:36;47.60;;;33.40;;
47912;SDS011;33676;51.006;17.180;2023-03-07T01:19:06;47.40;;;32.70;;
47912;SDS011;33676;51.006;17.180;2023-03-07T01:21:41;43.30;;;31.00;;
47912;SDS011;33676;51.006;17.180;2023-03-07T01:24:14;49.90;;;31.90;;
47912;SDS011;33676;51.006;17.180;2023-03-07T01:26:43;46.40;;;34.70;;
47912;SDS011;33676;51.006;17.180;2023-03-07T01:29:11;47.90;;;31.80;;
47912;SDS011;33676;51.006;17.180;2023-03-07T01:31:40;46.90;;;33.00;;
47912;SDS011;33676;51.006;17.180;2023-03-07T01:34:09;44.90;;;31.30;;
47912;SDS011;33676;51.006;17.180;2023-03-07T01:36:37;47.10;;;33.70;;
47912;SDS011;33676;51.006;17.180;2023-03-07T01:39:11;47.90;;;31.30;;
47912;SDS011;33676;51.006;17.180;2023-03-07T01:41:43;41.60;;;29.60;;
47912;SDS011;33676;51.006;17.180;2023-03-07T01:44:17;46.60;;;31.80;;
47912;SDS011;33676;51.006;17.180;2023-03-07T01:46:52;47.50;;;33.30;;
47912;SDS011;33676;51.006;17.180;2023-03-07T01:49:38;50.00;;;35.80;;
47912;SDS011;33676;51.006;17.180;2023-03-07T01:52:19;60.90;;;40.40;;
47912;SDS011;33676;51.006;17.180;2023-03-07T01:54:59;59.80;;;37.90;;
47912;SDS011;33676;51.006;17.180;2023-03-07T01:57:34;61.50;;;38.50;;
47912;SDS011;33676;51.006;17.180;2023-03-07T02:00:09;56.10;;;36.00;;
47912;SDS011;33676;51.006;17.180;2023-03-07T02:02:42;60.30;;;38.40;;
47912;SDS011;33676;51.006;17.180;2023-03-07T02:05:16;58.40;;;37.50;;
47912;SDS011;33676;51.006;17.180;2023-03-07T02:07:50;57.90;;;38.30;;
47912;SDS011;33676;51.006;17.180;2023-03-07T02:10:21;61.10;;;39.00;;
47912;SDS011;33676;51.006;17.180;2023-03-07T02:12:52;64.40;;;39.50;;
47912;SDS011;33676;51.006;17.180;2023-03-07T02:15:21;53.00;;;37.10;;
47912;SDS011;33676;51.006;17.180;2023-03-07T02:17:50;53.00;;;37.40;;
47912;SDS011;33676;51.006;17.180;2023-03-07T02:20:38;52.50;;;34.10;;
47912;SDS011;33676;51.006;17.180;2023-03-07T02:23:38;51.80;;;33.90;;
47912;SDS011;33676;51.006;17.180;2023-03-07T02:28:59;56.10;;;37.20;;
47912;SDS011;33676;51.006;17.180;2023-03-07T02:31:28;53.00;;;34.60;;
47912;SDS011;33676;51.006;17.180;2023-03-07T02:33:57;53.20;;;37.80;;
47912;SDS011;33676;51.006;17.180;2023-03-07T02:36:29;56.10;;;36.80;;
47912;SDS011;33676;51.006;17.180;2023-03-07T02:39:02;56.30;;;37.20;;
47912;SDS011;33676;51.006;17.180;2023-03-07T02:41:34;47.30;;;35.00;;
47912;SDS011;33676;51.006;17.180;2023-03-07T02:44:06;49.30;;;35.70;;
47912;SDS011;33676;51.006;17.180;2023-03-07T02:46:35;49.40;;;33.30;;
47912;SDS011;33676;51.006;17.180;2023-03-07T02:49:03;48.50;;;34.70;;
47912;SDS011;33676;51.006;17.180;2023-03-07T02:51:33;50.90;;;35.50;;
47912;SDS011;33676;51.006;17.180;2023-03-07T02:54:02;51.40;;;36.60;;
47912;SDS011;33676;51.006;17.180;2023-03-07T02:56:30;54.60;;;36.30;;
47912;SDS011;33676;51.006;17.180;2023-03-07T02:58:59;53.10;;;37.20;;
47912;SDS011;33676;51.006;17.180;2023-03-07T03:01:31;53.70;;;35.60;;
47912;SDS011;33676;51.006;17.180;2023-03-07T03:04:00;56.30;;;36.10;;
47912;SDS011;33676;51.006;17.180;2023-03-07T03:06:29;54.00;;;36.60;;
47912;SDS011;33676;51.006;17.180;2023-03-07T03:08:58;55.40;;;37.20;;
47912;SDS011;33676;51.006;17.180;2023-03-07T03:11:27;48.70;;;33.00;;
47912;SDS011;33676;51.006;17.180;2023-03-07T03:13:56;50.90;;;35.00;;
47912;SDS011;33676;51.006;17.180;2023-03-07T03:16:25;54.20;;;37.20;;
47912;SDS011;33676;51.006;17.180;2023-03-07T03:18:53;48.20;;;33.20;;
47912;SDS011;33676;51.006;17.180;2023-03-07T03:21:22;54.00;;;34.10;;
47912;SDS011;33676;51.006;17.180;2023-03-07T03:23:52;50.70;;;35.40;;
47912;SDS011;33676;51.006;17.180;2023-03-07T03:26:22;52.50;;;33.90;;
47912;SDS011;33676;51.006;17.180;2023-03-07T03:28:53;49.80;;;35.60;;
47912;SDS011;33676;51.006;17.180;2023-03-07T03:31:21;52.70;;;35.60;;
47912;SDS011;33676;51.006;17.180;2023-03-07T03:33:51;54.70;;;36.80;;
47912;SDS011;33676;51.006;17.180;2023-03-07T03:36:19;51.80;;;35.90;;
47912;SDS011;33676;51.006;17.180;2023-03-07T03:38:54;52.50;;;36.60;;
47912;SDS011;33676;51.006;17.180;2023-03-07T03:41:24;53.30;;;33.20;;
47912;SDS011;33676;51.006;17.180;2023-03-07T03:43:55;44.60;;;30.70;;
47912;SDS011;33676;51.006;17.180;2023-03-07T03:46:26;49.70;;;33.90;;
47912;SDS011;33676;51.006;17.180;2023-03-07T03:48:55;49.60;;;31.60;;
47912;SDS011;33676;51.006;17.180;2023-03-07T03:51:24;44.20;;;31.50;;
47912;SDS011;33676;51.006;17.180;2023-03-07T03:53:54;45.20;;;29.40;;
47912;SDS011;33676;51.006;17.180;2023-03-07T03:56:26;47.60;;;32.60;;
47912;SDS011;33676;51.006;17.180;2023-03-07T03:58:56;43.60;;;31.00;;
47912;SDS011;33676;51.006;17.180;2023-03-07T04:01:27;43.90;;;28.90;;
47912;SDS011;33676;51.006;17.180;2023-03-07T04:04:01;43.30;;;30.90;;
47912;SDS011;33676;51.006;17.180;2023-03-07T04:06:32;44.00;;;32.30;;
47912;SDS011;33676;51.006;17.180;2023-03-07T04:09:02;45.30;;;31.40;;
47912;SDS011;33676;51.006;17.180;2023-03-07T04:11:32;47.40;;;32.70;;
47912;SDS011;33676;51.006;17.180;2023-03-07T04:14:01;48.50;;;31.70;;
47912;SDS011;33676;51.006;17.180;2023-03-07T04:16:30;44.50;;;28.80;;
47912;SDS011;33676;51.006;17.180;2023-03-07T04:18:59;47.40;;;30.60;;
47912;SDS011;33676;51.006;17.180;2023-03-07T04:21:27;46.70;;;32.80;;
47912;SDS011;33676;51.006;17.180;2023-03-07T04:24:01;49.20;;;31.90;;
47912;SDS011;33676;51.006;17.180;2023-03-07T04:26:29;45.70;;;29.90;;
47912;SDS011;33676;51.006;17.180;2023-03-07T04:28:58;40.50;;;30.30;;
47912;SDS011;33676;51.006;17.180;2023-03-07T04:31:27;42.30;;;29.30;;
47912;SDS011;33676;51.006;17.180;2023-03-07T04:33:56;43.50;;;29.90;;
47912;SDS011;33676;51.006;17.180;2023-03-07T04:36:24;40.40;;;26.40;;
47912;SDS011;33676;51.006;17.180;2023-03-07T04:48:37;48.30;;;29.00;;
47912;SDS011;33676;51.006;17.180;2023-03-07T04:51:06;41.80;;;28.60;;
47912;SDS011;33676;51.006;17.180;2023-03-07T04:53:34;37.90;;;27.30;;
47912;SDS011;33676;51.006;17.180;2023-03-07T04:56:04;40.50;;;27.20;;
47912;SDS011;33676;51.006;17.180;2023-03-07T04:58:35;43.10;;;26.30;;
47912;SDS011;33676;51.006;17.180;2023-03-07T05:01:04;37.30;;;26.70;;
47912;SDS011;33676;51.006;17.180;2023-03-07T05:03:33;37.60;;;27.10;;
47912;SDS011;33676;51.006;17.180;2023-03-07T05:06:13;42.90;;;27.80;;
47912;SDS011;33676;51.006;17.180;2023-03-07T05:08:42;39.60;;;27.00;;
47912;SDS011;33676;51.006;17.180;2023-03-07T05:11:11;32.00;;;23.00;;
47912;SDS011;33676;51.006;17.180;2023-03-07T05:13:40;35.30;;;25.00;;
47912;SDS011;33676;51.006;17.180;2023-03-07T05:16:08;35.40;;;23.10;;
47912;SDS011;33676;51.006;17.180;2023-03-07T05:18:37;37.10;;;22.80;;
47912;SDS011;33676;51.006;17.180;2023-03-07T05:21:06;31.60;;;22.40;;
47912;SDS011;33676;51.006;17.180;2023-03-07T05:23:34;32.50;;;22.70;;
47912;SDS011;33676;51.006;17.180;2023-03-07T05:26:03;34.80;;;22.10;;
47912;SDS011;33676;51.006;17.180;2023-03-07T05:28:31;31.50;;;21.70;;
47912;SDS011;33676;51.006;17.180;2023-03-07T05:31:01;33.70;;;22.00;;
47912;SDS011;33676;51.006;17.180;2023-03-07T05:33:29;29.90;;;20.80;;
47912;SDS011;33676;51.006;17.180;2023-03-07T05:36:00;29.90;;;21.60;;
47912;SDS011;33676;51.006;17.180;2023-03-07T05:38:32;34.10;;;22.70;;
47912;SDS011;33676;51.006;17.180;2023-03-07T05:41:02;28.90;;;20.70;;
47912;SDS011;33676;51.006;17.180;2023-03-07T05:43:30;30.70;;;20.30;;
47912;SDS011;33676;51.006;17.180;2023-03-07T05:45:59;25.60;;;19.90;;
47912;SDS011;33676;51.006;17.180;2023-03-07T05:48:28;30.20;;;20.20;;
47912;SDS011;33676;51.006;17.180;2023-03-07T05:50:59;28.60;;;20.10;;
47912;SDS011;33676;51.006;17.180;2023-03-07T05:53:28;30.50;;;19.90;;
47912;SDS011;33676;51.006;17.180;2023-03-07T05:55:56;29.70;;;20.40;;
47912;SDS011;33676;51.006;17.180;2023-03-07T05:58:25;32.40;;;22.90;;
47912;SDS011;33676;51.006;17.180;2023-03-07T06:00:53;38.60;;;26.60;;
47912;SDS011;33676;51.006;17.180;2023-03-07T06:03:22;39.00;;;27.70;;
47912;SDS011;33676;51.006;17.180;2023-03-07T06:05:50;37.50;;;25.80;;
47912;SDS011;33676;51.006;17.180;2023-03-07T06:08:19;38.50;;;27.10;;
47912;SDS011;33676;51.006;17.180;2023-03-07T06:10:51;39.00;;;25.70;;
47912;SDS011;33676;51.006;17.180;2023-03-07T06:13:23;39.00;;;25.80;;
47912;SDS011;33676;51.006;17.180;2023-03-07T06:15:53;34.50;;;24.20;;
47912;SDS011;33676;51.006;17.180;2023-03-07T06:18:24;32.20;;;22.90;;
47912;SDS011;33676;51.006;17.180;2023-03-07T06:20:58;31.40;;;21.90;;
47912;SDS011;33676;51.006;17.180;2023-03-07T06:23:30;31.70;;;23.50;;
47912;SDS011;33676;51.006;17.180;2023-03-07T06:26:01;30.60;;;22.90;;
47912;SDS011;33676;51.006;17.180;2023-03-07T06:28:30;30.00;;;24.20;;
47912;SDS011;33676;51.006;17.180;2023-03-07T06:31:00;27.40;;;20.60;;
47912;SDS011;33676;51.006;17.180;2023-03-07T06:33:28;29.60;;;22.00;;
47912;SDS011;33676;51.006;17.180;2023-03-07T06:35:57;32.10;;;24.50;;
47912;SDS011;33676;51.006;17.180;2023-03-07T06:38:25;26.90;;;20.30;;
47912;SDS011;33676;51.006;17.180;2023-03-07T06:40:55;29.70;;;21.20;;
47912;SDS011;33676;51.006;17.180;2023-03-07T06:43:24;26.50;;;20.60;;
47912;SDS011;33676;51.006;17.180;2023-03-07T06:45:52;28.50;;;19.70;;
47912;SDS011;33676;51.006;17.180;2023-03-07T06:48:21;30.10;;;21.70;;
47912;SDS011;33676;51.006;17.180;2023-03-07T06:50:50;30.50;;;20.90;;
47912;SDS011;33676;51.006;17.180;2023-03-07T06:53:18;31.80;;;22.20;;
47912;SDS011;33676;51.006;17.180;2023-03-07T06:55:48;30.90;;;20.90;;
47912;SDS011;33676;51.006;17.180;2023-03-07T06:58:18;34.10;;;22.60;;
47912;SDS011;33676;51.006;17.180;2023-03-07T07:00:46;28.20;;;21.90;;
47912;SDS011;33676;51.006;17.180;2023-03-07T07:03:15;31.40;;;24.10;;
47912;SDS011;33676;51.006;17.180;2023-03-07T07:05:46;27.30;;;21.60;;
47912;SDS011;33676;51.006;17.180;2023-03-07T07:08:15;30.40;;;21.50;;
47912;SDS011;33676;51.006;17.180;2023-03-07T07:10:43;29.80;;;21.20;;
47912;SDS011;33676;51.006;17.180;2023-03-07T07:13:12;30.70;;;23.60;;
47912;SDS011;33676;51.006;17.180;2023-03-07T07:15:40;26.90;;;21.10;;
47912;SDS011;33676;51.006;17.180;2023-03-07T07:18:13;28.90;;;23.20;;
47912;SDS011;33676;51.006;17.180;2023-03-07T07:20:42;35.80;;;23.40;;
47912;SDS011;33676;51.006;17.180;2023-03-07T07:23:10;30.10;;;21.00;;
47912;SDS011;33676;51.006;17.180;2023-03-07T07:25:38;27.90;;;21.50;;
47912;SDS011;33676;51.006;17.180;2023-03-07T07:28:07;29.80;;;21.90;;
47912;SDS011;33676;51.006;17.180;2023-03-07T07:30:35;30.00;;;21.70;;
47912;SDS011;33676;51.006;17.180;2023-03-07T07:33:04;30.40;;;21.80;;
47912;SDS011;33676;51.006;17.180;2023-03-07T07:35:32;25.40;;;19.60;;
47912;SDS011;33676;51.006;17.180;2023-03-07T07:38:01;26.90;;;19.70;;
47912;SDS011;33676;51.006;17.180;2023-03-07T07:40:30;27.90;;;19.70;;
47912;SDS011;33676;51.006;17.180;2023-03-07T07:42:58;27.70;;;20.20;;
47912;SDS011;33676;51.006;17.180;2023-03-07T07:45:27;25.90;;;20.80;;
47912;SDS011;33676;51.006;17.180;2023-03-07T07:47:55;27.20;;;21.00;;
47912;SDS011;33676;51.006;17.180;2023-03-07T07:50:24;26.30;;;18.80;;
47912;SDS011;33676;51.006;17.180;2023-03-07T07:52:52;25.60;;;18.90;;
47912;SDS011;33676;51.006;17.180;2023-03-07T07:55:21;25.80;;;17.10;;
47912;SDS011;33676;51.006;17.180;2023-03-07T07:57:52;23.10;;;18.10;;
47912;SDS011;33676;51.006;17.180;2023-03-07T08:00:20;23.60;;;18.60;;
47912;SDS011;33676;51.006;17.180;2023-03-07T08:02:49;26.30;;;18.70;;
47912;SDS011;33676;51.006;17.180;2023-03-07T08:05:19;27.00;;;19.80;;
47912;SDS011;33676;51.006;17.180;2023-03-07T08:07:49;26.60;;;18.80;;
47912;SDS011;33676;51.006;17.180;2023-03-07T08:10:17;25.50;;;19.60;;
47912;SDS011;33676;51.006;17.180;2023-03-07T08:12:47;25.40;;;19.30;;
47912;SDS011;33676;51.006;17.180;2023-03-07T08:15:20;25.80;;;18.80;;
47912;SDS011;33676;51.006;17.180;2023-03-07T08:17:48;26.70;;;19.70;;
47912;SDS011;33676;51.006;17.180;2023-03-07T08:20:18;30.50;;;22.80;;
47912;SDS011;33676;51.006;17.180;2023-03-07T08:22:49;27.10;;;20.90;;
47912;SDS011;33676;51.006;17.180;2023-03-07T08:25:21;27.00;;;19.90;;
47912;SDS011;33676;51.006;17.180;2023-03-07T08:27:53;26.30;;;20.40;;
47912;SDS011;33676;51.006;17.180;2023-03-07T08:30:26;24.80;;;19.90;;
47912;SDS011;33676;51.006;17.180;2023-03-07T08:32:56;22.80;;;19.30;;
47912;SDS011;33676;51.006;17.180;2023-03-07T08:35:25;28.90;;;19.00;;
47912;SDS011;33676;51.006;17.180;2023-03-07T08:37:56;26.70;;;20.90;;
47912;SDS011;33676;51.006;17.180;2023-03-07T08:40:28;27.50;;;20.80;;
47912;SDS011;33676;51.006;17.180;2023-03-07T08:42:58;31.10;;;22.50;;
47912;SDS011;33676;51.006;17.180;2023-03-07T08:45:27;29.90;;;23.00;;
47912;SDS011;33676;51.006;17.180;2023-03-07T08:47:55;24.80;;;19.60;;
47912;SDS011;33676;51.006;17.180;2023-03-07T08:50:26;21.10;;;16.00;;
47912;SDS011;33676;51.006;17.180;2023-03-07T08:52:55;15.20;;;13.60;;
47912;SDS011;33676;51.006;17.180;2023-03-07T08:55:24;15.10;;;12.70;;
47912;SDS011;33676;51.006;17.180;2023-03-07T08:57:53;17.20;;;15.30;;
47912;SDS011;33676;51.006;17.180;2023-03-07T09:00:21;16.90;;;12.90;;
47912;SDS011;33676;51.006;17.180;2023-03-07T09:02:50;18.80;;;15.00;;
47912;SDS011;33676;51.006;17.180;2023-03-07T09:05:18;17.10;;;14.30;;
47912;SDS011;33676;51.006;17.180;2023-03-07T09:07:47;16.50;;;13.10;;
47912;SDS011;33676;51.006;17.180;2023-03-07T09:10:16;15.90;;;13.20;;
47912;SDS011;33676;51.006;17.180;2023-03-07T09:12:47;14.60;;;12.80;;
47912;SDS011;33676;51.006;17.180;2023-03-07T09:15:18;15.30;;;12.70;;
47912;SDS011;33676;51.006;17.180;2023-03-07T09:17:46;14.60;;;13.10;;
47912;SDS011;33676;51.006;17.180;2023-03-07T09:20:15;19.60;;;15.10;;
47912;SDS011;33676;51.006;17.180;2023-03-07T09:22:44;19.00;;;14.40;;
47912;SDS011;33676;51.006;17.180;2023-03-07T09:25:14;15.70;;;13.00;;
47912;SDS011;33676;51.006;17.180;2023-03-07T09:27:42;16.10;;;14.00;;
47912;SDS011;33676;51.006;17.180;2023-03-07T09:30:13;19.70;;;11.80;;
47912;SDS011;33676;51.006;17.180;2023-03-07T09:32:42;28.20;;;20.30;;
47912;SDS011;33676;51.006;17.180;2023-03-07T09:35:11;31.20;;;23.30;;
47912;SDS011;33676;51.006;17.180;2023-03-07T09:37:39;26.00;;;20.00;;
47912;SDS011;33676;51.006;17.180;2023-03-07T09:40:14;17.30;;;14.00;;
47912;SDS011;33676;51.006;17.180;2023-03-07T09:42:56;17.20;;;14.50;;
47912;SDS011;33676;51.006;17.180;2023-03-07T09:51:38;15.50;;;12.10;;
47912;SDS011;33676;51.006;17.180;2023-03-07T09:54:16;17.90;;;12.10;;
47912;SDS011;33676;51.006;17.180;2023-03-07T09:57:16;13.60;;;11.40;;
47912;SDS011;33676;51.006;17.180;2023-03-07T09:59:54;14.60;;;11.20;;
47912;SDS011;33676;51.006;17.180;2023-03-07T10:02:59;12.70;;;11.20;;
47912;SDS011;33676;51.006;17.180;2023-03-07T10:06:11;12.50;;;10.70;;
47912;SDS011;33676;51.006;17.180;2023-03-07T10:09:15;11.60;;;10.50;;
47912;SDS011;33676;51.006;17.180;2023-03-07T10:17:55;12.00;;;10.70;;
47912;SDS011;33676;51.006;17.180;2023-03-07T10:21:11;13.40;;;11.50;;
47912;SDS011;33676;51.006;17.180;2023-03-07T10:26:55;16.40;;;11.80;;
47912;SDS011;33676;51.006;17.180;2023-03-07T10:29:35;11.70;;;10.40;;
47912;SDS011;33676;51.006;17.180;2023-03-07T10:32:19;11.60;;;10.40;;
47912;SDS011;33676;51.006;17.180;2023-03-07T10:43:34;12.00;;;9.90;;
47912;SDS011;33676;51.006;17.180;2023-03-07T10:46:23;12.30;;;10.40;;
47912;SDS011;33676;51.006;17.180;2023-03-07T10:49:11;12.70;;;11.20;;
47912;SDS011;33676;51.006;17.180;2023-03-07T10:51:49;12.30;;;10.50;;
47912;SDS011;33676;51.006;17.180;2023-03-07T10:54:31;12.30;;;10.70;;
47912;SDS011;33676;51.006;17.180;2023-03-07T10:59:45;11.50;;;9.70;;
47912;SDS011;33676;51.006;17.180;2023-03-07T11:07:59;10.20;;;8.80;;
47912;SDS011;33676;51.006;17.180;2023-03-07T11:10:37;10.30;;;9.30;;
47912;SDS011;33676;51.006;17.180;2023-03-07T11:13:16;10.40;;;9.00;;
47912;SDS011;33676;51.006;17.180;2023-03-07T11:15:46;11.50;;;10.30;;
47912;SDS011;33676;51.006;17.180;2023-03-07T11:18:39;11.10;;;10.00;;
47912;SDS011;33676;51.006;17.180;2023-03-07T11:21:33;12.40;;;10.00;;
47912;SDS011;33676;51.006;17.180;2023-03-07T11:24:26;10.20;;;9.20;;
47912;SDS011;33676;51.006;17.180;2023-03-07T11:26:57;10.60;;;9.50;;
47912;SDS011;33676;51.006;17.180;2023-03-07T11:29:27;12.20;;;10.30;;
47912;SDS011;33676;51.006;17.180;2023-03-07T11:34:40;9.90;;;8.90;;
47912;SDS011;33676;51.006;17.180;2023-03-07T11:40:54;10.40;;;8.20;;
47912;SDS011;33676;51.006;17.180;2023-03-07T11:46:16;9.90;;;9.10;;
47912;SDS011;33676;51.006;17.180;2023-03-07T11:54:45;10.60;;;9.60;;
47912;SDS011;33676;51.006;17.180;2023-03-07T12:05:54;13.80;;;10.90;;
47912;SDS011;33676;51.006;17.180;2023-03-07T12:09:15;8.70;;;7.80;;
47912;SDS011;33676;51.006;17.180;2023-03-07T12:12:22;9.20;;;8.20;;
47912;SDS011;33676;51.006;17.180;2023-03-07T12:15:28;10.00;;;8.80;;
47912;SDS011;33676;51.006;17.180;2023-03-07T12:18:13;10.10;;;9.00;;
47912;SDS011;33676;51.006;17.180;2023-03-07T12:24:24;12.40;;;10.60;;
47912;SDS011;33676;51.006;17.180;2023-03-07T12:27:16;10.60;;;8.60;;
47912;SDS011;33676;51.006;17.180;2023-03-07T12:30:08;9.20;;;8.40;;
47912;SDS011;33676;51.006;17.180;2023-03-07T12:32:45;9.90;;;8.90;;
47912;SDS011;33676;51.006;17.180;2023-03-07T12:35:40;11.00;;;7.90;;
47912;SDS011;33676;51.006;17.180;2023-03-07T12:41:02;9.60;;;8.60;;
47912;SDS011;33676;51.006;17.180;2023-03-07T12:43:43;10.20;;;8.50;;
47912;SDS011;33676;51.006;17.180;2023-03-07T12:46:31;10.80;;;9.50;;
47912;SDS011;33676;51.006;17.180;2023-03-07T12:49:12;9.20;;;8.30;;
47912;SDS011;33676;51.006;17.180;2023-03-07T12:52:00;8.80;;;7.90;;
47912;SDS011;33676;51.006;17.180;2023-03-07T12:54:38;10.60;;;9.30;;
47912;SDS011;33676;51.006;17.180;2023-03-07T12:57:13;11.00;;;9.30;;
47912;SDS011;33676;51.006;17.180;2023-03-07T12:59:46;12.20;;;9.10;;
47912;SDS011;33676;51.006;17.180;2023-03-07T13:02:24;17.00;;;9.80;;
47912;SDS011;33676;51.006;17.180;2023-03-07T13:04:56;10.10;;;9.10;;
47912;SDS011;33676;51.006;17.180;2023-03-07T13:07:29;10.10;;;9.10;;
47912;SDS011;33676;51.006;17.180;2023-03-07T13:10:03;11.00;;;9.90;;
47912;SDS011;33676;51.006;17.180;2023-03-07T13:12:37;11.20;;;8.90;;
47912;SDS011;33676;51.006;17.180;2023-03-07T13:28:04;8.50;;;7.70;;
47912;SDS011;33676;51.006;17.180;2023-03-07T13:33:43;9.50;;;7.90;;
47912;SDS011;33676;51.006;17.180;2023-03-07T13:36:35;8.30;;;7.40;;
47912;SDS011;33676;51.006;17.180;2023-03-07T13:39:35;7.10;;;6.40;;
47912;SDS011;33676;51.006;17.180;2023-03-07T13:42:42;10.00;;;6.90;;
47912;SDS011;33676;51.006;17.180;2023-03-07T14:07:25;6.60;;;6.00;;
47912;SDS011;33676;51.006;17.180;2023-03-07T14:09:58;7.40;;;6.70;;
47912;SDS011;33676;51.006;17.180;2023-03-07T14:16:04;6.50;;;5.80;;
47912;SDS011;33676;51.006;17.180;2023-03-07T14:18:55;6.70;;;6.10;;
47912;SDS011;33676;51.006;17.180;2023-03-07T14:27:02;7.50;;;6.50;;
47912;SDS011;33676;51.006;17.180;2023-03-07T14:29:32;7.20;;;6.60;;
47912;SDS011;33676;51.006;17.180;2023-03-07T14:32:01;8.40;;;7.60;;
47912;SDS011;33676;51.006;17.180;2023-03-07T14:34:32;9.60;;;8.30;;
47912;SDS011;33676;51.006;17.180;2023-03-07T14:37:06;11.10;;;9.50;;
47912;SDS011;33676;51.006;17.180;2023-03-07T14:51:25;17.60;;;14.30;;
47912;SDS011;33676;51.006;17.180;2023-03-07T14:53:56;26.20;;;18.50;;
47912;SDS011;33676;51.006;17.180;2023-03-07T14:56:31;12.60;;;11.30;;
47912;SDS011;33676;51.006;17.180;2023-03-07T14:59:01;9.50;;;8.20;;
47912;SDS011;33676;51.006;17.180;2023-03-07T15:01:34;12.50;;;11.30;;
47912;SDS011;33676;51.006;17.180;2023-03-07T15:04:25;9.40;;;7.50;;
47912;SDS011;33676;51.006;17.180;2023-03-07T15:06:58;9.30;;;8.30;;
47912;SDS011;33676;51.006;17.180;2023-03-07T15:09:28;10.40;;;9.30;;
47912;SDS011;33676;51.006;17.180;2023-03-07T15:12:09;10.30;;;8.60;;
47912;SDS011;33676;51.006;17.180;2023-03-07T15:14:45;11.20;;;10.10;;
47912;SDS011;33676;51.006;17.180;2023-03-07T15:17:17;12.00;;;10.60;;
47912;SDS011;33676;51.006;17.180;2023-03-07T15:19:55;17.20;;;13.10;;
47912;SDS011;33676;51.006;17.180;2023-03-07T15:22:34;17.90;;;13.90;;
47912;SDS011;33676;51.006;17.180;2023-03-07T15:25:18;14.10;;;11.40;;
47912;SDS011;33676;51.006;17.180;2023-03-07T15:28:00;10.00;;;8.90;;
47912;SDS011;33676;51.006;17.180;2023-03-07T15:30:33;11.20;;;9.90;;
47912;SDS011;33676;51.006;17.180;2023-03-07T15:36:12;9.80;;;8.80;;
47912;SDS011;33676;51.006;17.180;2023-03-07T15:38:47;15.80;;;11.50;;
47912;SDS011;33676;51.006;17.180;2023-03-07T15:44:17;11.40;;;10.30;;
47912;SDS011;33676;51.006;17.180;2023-03-07T15:46:52;13.00;;;11.50;;
47912;SDS011;33676;51.006;17.180;2023-03-07T15:49:29;10.90;;;9.70;;
47912;SDS011;33676;51.006;17.180;2023-03-07T15:52:04;11.20;;;9.90;;
47912;SDS011;33676;51.006;17.180;2023-03-07T15:54:39;9.60;;;8.60;;
47912;SDS011;33676;51.006;17.180;2023-03-07T15:57:18;11.20;;;10.10;;
47912;SDS011;33676;51.006;17.180;2023-03-07T15:59:58;11.40;;;9.10;;
47912;SDS011;33676;51.006;17.180;2023-03-07T16:02:38;10.70;;;8.50;;
47912;SDS011;33676;51.006;17.180;2023-03-07T16:07:46;9.80;;;8.60;;
47912;SDS011;33676;51.006;17.180;2023-03-07T16:10:16;13.40;;;8.80;;
47912;SDS011;33676;51.006;17.180;2023-03-07T16:12:46;12.40;;;7.90;;
47912;SDS011;33676;51.006;17.180;2023-03-07T16:15:17;9.90;;;8.90;;
47912;SDS011;33676;51.006;17.180;2023-03-07T16:17:50;10.20;;;9.20;;
47912;SDS011;33676;51.006;17.180;2023-03-07T16:20:25;8.70;;;7.50;;
47912;SDS011;33676;51.006;17.180;2023-03-07T16:22:55;9.10;;;8.10;;
47912;SDS011;33676;51.006;17.180;2023-03-07T16:25:26;8.20;;;7.30;;
47912;SDS011;33676;51.006;17.180;2023-03-07T16:27:57;11.10;;;8.90;;
47912;SDS011;33676;51.006;17.180;2023-03-07T16:30:27;13.50;;;8.20;;
47912;SDS011;33676;51.006;17.180;2023-03-07T16:33:00;10.70;;;9.30;;
47912;SDS011;33676;51.006;17.180;2023-03-07T16:35:29;8.50;;;6.90;;
47912;SDS011;33676;51.006;17.180;2023-03-07T16:37:57;10.20;;;8.40;;
47912;SDS011;33676;51.006;17.180;2023-03-07T16:40:26;9.70;;;8.40;;
47912;SDS011;33676;51.006;17.180;2023-03-07T16:42:56;9.10;;;7.90;;
47912;SDS011;33676;51.006;17.180;2023-03-07T16:45:27;11.10;;;8.60;;
47912;SDS011;33676;51.006;17.180;2023-03-07T16:47:59;8.60;;;7.50;;
47912;SDS011;33676;51.006;17.180;2023-03-07T16:50:30;13.80;;;7.70;;
47912;SDS011;33676;51.006;17.180;2023-03-07T16:53:00;10.50;;;9.00;;
47912;SDS011;33676;51.006;17.180;2023-03-07T16:55:28;14.60;;;9.80;;
47912;SDS011;33676;51.006;17.180;2023-03-07T16:57:59;12.30;;;10.00;;
47912;SDS011;33676;51.006;17.180;2023-03-07T17:00:31;11.20;;;8.90;;
47912;SDS011;33676;51.006;17.180;2023-03-07T17:03:00;11.10;;;8.90;;
47912;SDS011;33676;51.006;17.180;2023-03-07T17:11:48;8.80;;;7.10;;
47912;SDS011;33676;51.006;17.180;2023-03-07T17:14:19;9.10;;;8.00;;
47912;SDS011;33676;51.006;17.180;2023-03-07T17:16:48;10.40;;;8.30;;